createdAt,value
2023-01-26T00:01:19.835Z,62.25
2023-01-26T00:03:46.676Z,71.78
2023-01-26T00:06:15.973Z,75.63
2023-01-26T00:08:44.686Z,71.72
2023-01-26T00:11:13.592Z,70.97
2023-01-26T00:13:40.590Z,70.55
2023-01-26T00:16:12.663Z,74.22
2023-01-26T00:18:40.721Z,71.55
2023-01-26T00:21:11.141Z,74.65
2023-01-26T00:23:37.874Z,69.93
2023-01-26T00:26:09.613Z,77.97
2023-01-26T00:28:38.144Z,69.82
2023-01-26T00:31:12.671Z,77.50
2023-01-26T00:33:39.348Z,78.43
2023-01-26T00:36:06.578Z,77.47
2023-01-26T00:38:33.383Z,79.88
2023-01-26T00:41:01.729Z,73.15
2023-01-26T00:43:28.858Z,80.75
2023-01-26T00:45:55.524Z,81.95
2023-01-26T00:48:24.525Z,82.85
2023-01-26T00:50:52.526Z,91.35
2023-01-26T00:53:19.492Z,88.57
2023-01-26T00:55:46.201Z,88.70
2023-01-26T00:58:12.996Z,108.82
2023-01-26T01:00:39.879Z,87.47
2023-01-26T01:03:07.251Z,79.13
2023-01-26T01:05:34.498Z,77.32
2023-01-26T01:08:02.226Z,79.10
2023-01-26T01:10:29.215Z,78.15
2023-01-26T01:12:56.522Z,81.13
2023-01-26T01:15:24.037Z,84.47
2023-01-26T01:17:50.701Z,82.00
2023-01-26T01:20:17.457Z,79.47
2023-01-26T01:22:44.228Z,80.55
2023-01-26T01:25:11.323Z,84.10
2023-01-26T01:27:38.411Z,82.55
2023-01-26T01:30:08.495Z,79.72
2023-01-26T01:32:36.283Z,80.45
2023-01-26T01:35:03.684Z,83.10
2023-01-26T01:37:30.612Z,85.97
2023-01-26T01:39:57.238Z,85.20
2023-01-26T01:42:24.946Z,80.90
2023-01-26T01:45:25.819Z,84.20
2023-01-26T01:48:02.743Z,77.20
2023-01-26T01:50:35.041Z,85.18
2023-01-26T01:53:03.021Z,87.47
2023-01-26T01:55:29.823Z,85.82
2023-01-26T01:58:01.656Z,87.13
2023-01-26T02:00:28.862Z,86.05
2023-01-26T02:03:18.993Z,87.63
2023-01-26T02:06:01.089Z,87.82
2023-01-26T02:08:33.395Z,93.88
2023-01-26T02:11:04.991Z,89.68
2023-01-26T02:13:33.599Z,90.05
2023-01-26T02:16:00.749Z,88.68
2023-01-26T02:18:28.710Z,88.78
2023-01-26T02:21:01.435Z,93.35
2023-01-26T02:23:50.584Z,87.10
2023-01-26T02:26:24.521Z,86.72
2023-01-26T02:28:52.258Z,75.85
2023-01-26T02:31:19.787Z,72.70
2023-01-26T02:33:47.847Z,71.30
2023-01-26T02:36:23.674Z,65.03
2023-01-26T02:39:08.501Z,67.15
2023-01-26T02:41:53.793Z,66.88
2023-01-26T02:44:22.454Z,74.78
2023-01-26T02:46:49.140Z,76.32
2023-01-26T02:49:35.075Z,77.47
2023-01-26T02:52:02.104Z,77.25
2023-01-26T02:54:47.309Z,70.82
2023-01-26T02:57:13.932Z,70.60
2023-01-26T02:59:40.619Z,63.65
2023-01-26T03:02:08.331Z,67.72
2023-01-26T03:04:34.939Z,63.78
2023-01-26T03:07:01.835Z,64.57
2023-01-26T03:09:28.575Z,62.25
2023-01-26T03:11:55.186Z,66.40
2023-01-26T03:14:21.825Z,64.25
2023-01-26T03:16:49.795Z,63.20
2023-01-26T03:19:34.909Z,62.63
2023-01-26T03:22:28.515Z,63.25
2023-01-26T03:25:14.798Z,61.42
2023-01-26T03:27:45.586Z,67.18
2023-01-26T03:30:16.773Z,62.67
2023-01-26T03:32:45.915Z,60.72
2023-01-26T03:35:15.905Z,60.58
2023-01-26T03:37:44.128Z,64.53
2023-01-26T03:40:35.519Z,60.30
2023-01-26T03:43:26.902Z,66.78
2023-01-26T03:46:12.626Z,63.08
2023-01-26T03:48:57.855Z,62.97
2023-01-26T03:51:43.454Z,63.92
2023-01-26T03:54:28.560Z,63.05
2023-01-26T03:59:37.592Z,60.83
2023-01-26T04:02:26.239Z,63.25
2023-01-26T04:05:12.709Z,64.00
2023-01-26T04:08:02.624Z,61.50
2023-01-26T04:13:14.331Z,60.80
2023-01-26T04:16:06.416Z,61.03
2023-01-26T04:18:52.166Z,63.20
2023-01-26T04:21:28.920Z,62.58
2023-01-26T04:23:58.209Z,62.75
2023-01-26T04:26:36.907Z,64.07
2023-01-26T04:29:12.860Z,64.57
2023-01-26T04:31:41.544Z,63.08
2023-01-26T04:34:14.308Z,65.35
2023-01-26T04:36:42.507Z,65.95
2023-01-26T04:39:09.758Z,70.15
2023-01-26T04:41:41.306Z,69.82
2023-01-26T04:44:11.328Z,63.40
2023-01-26T04:46:38.103Z,61.25
2023-01-26T04:49:05.721Z,63.60
2023-01-26T04:51:33.573Z,64.32
2023-01-26T04:54:00.335Z,59.03
2023-01-26T04:56:30.271Z,63.00
2023-01-26T04:58:59.847Z,65.60
2023-01-26T05:01:27.056Z,67.75
2023-01-26T05:03:54.025Z,62.78
2023-01-26T05:06:21.911Z,61.42
2023-01-26T05:08:49.622Z,65.10
2023-01-26T05:11:16.341Z,69.22
2023-01-26T05:13:54.889Z,63.42
2023-01-26T05:16:41.881Z,66.82
2023-01-26T05:19:23.502Z,69.75
2023-01-26T05:21:57.704Z,79.00
2023-01-26T05:24:24.793Z,75.93
2023-01-26T05:27:11.431Z,75.05
2023-01-26T05:29:39.728Z,80.82
2023-01-26T05:32:06.447Z,79.60
2023-01-26T05:34:33.482Z,80.88
2023-01-26T05:37:00.627Z,83.20
2023-01-26T05:39:27.294Z,86.38
2023-01-26T05:41:57.531Z,80.68
2023-01-26T05:44:59.116Z,88.07
2023-01-26T05:47:25.772Z,100.22
2023-01-26T05:49:52.618Z,86.72
2023-01-26T05:52:26.124Z,85.78
2023-01-26T05:54:52.871Z,84.72
2023-01-26T05:57:19.791Z,84.90
2023-01-26T05:59:57.075Z,102.03
2023-01-26T06:02:24.063Z,78.40
2023-01-26T06:04:50.770Z,83.15
2023-01-26T06:07:18.115Z,103.05
2023-01-26T06:09:50.070Z,121.30
2023-01-26T06:12:55.234Z,105.85
2023-01-26T06:15:42.292Z,98.90
2023-01-26T06:18:09.494Z,129.27
2023-01-26T06:20:36.720Z,137.77
2023-01-26T06:23:06.932Z,115.32
2023-01-26T06:25:34.977Z,114.47
2023-01-26T06:28:02.037Z,149.63
2023-01-26T06:30:29.413Z,129.20
2023-01-26T06:33:00.867Z,101.45
2023-01-26T06:35:28.801Z,114.40
2023-01-26T06:37:59.392Z,114.13
2023-01-26T06:40:26.251Z,99.88
2023-01-26T06:42:53.019Z,86.78
2023-01-26T06:45:20.584Z,83.68
2023-01-26T06:47:49.792Z,81.00
2023-01-26T06:50:19.559Z,87.72
2023-01-26T06:52:50.443Z,83.38
2023-01-26T06:55:51.422Z,79.85
2023-01-26T06:58:44.354Z,81.15
2023-01-26T07:01:33.349Z,83.65
2023-01-26T07:04:00.033Z,85.97
2023-01-26T07:06:26.656Z,90.65
2023-01-26T07:08:53.234Z,85.82
2023-01-26T07:11:20.511Z,85.90
2023-01-26T07:13:47.440Z,73.55
2023-01-26T07:16:16.377Z,78.70
2023-01-26T07:18:43.483Z,74.60
2023-01-26T07:21:12.803Z,79.53
2023-01-26T07:23:39.441Z,108.38
2023-01-26T07:26:07.185Z,75.93
2023-01-26T07:28:39.218Z,77.95
2023-01-26T07:31:08.689Z,72.18
2023-01-26T07:33:35.921Z,75.88
2023-01-26T07:36:04.044Z,71.90
2023-01-26T07:38:32.459Z,73.55
2023-01-26T07:40:59.215Z,75.18
2023-01-26T07:43:25.939Z,73.45
2023-01-26T07:45:54.418Z,77.20
2023-01-26T07:48:22.449Z,72.10
2023-01-26T07:50:49.447Z,76.63
2023-01-26T07:53:19.322Z,75.75
2023-01-26T07:55:47.118Z,77.25
2023-01-26T07:58:14.032Z,75.97
2023-01-26T08:00:40.858Z,80.53
2023-01-26T08:03:07.886Z,75.90
2023-01-26T08:05:36.831Z,75.88
2023-01-26T08:08:04.704Z,77.43
2023-01-26T08:10:31.859Z,78.07
2023-01-26T08:13:02.562Z,77.00
2023-01-26T08:15:30.294Z,78.68
2023-01-26T08:17:56.950Z,83.68
2023-01-26T08:20:23.707Z,80.65
2023-01-26T08:22:50.388Z,80.97
2023-01-26T08:25:17.062Z,80.07
2023-01-26T08:27:43.673Z,76.80
2023-01-26T08:30:11.403Z,73.40
2023-01-26T08:32:38.283Z,79.90
2023-01-26T08:35:05.360Z,75.03
2023-01-26T08:37:31.980Z,79.00
2023-01-26T08:39:58.567Z,75.57
2023-01-26T08:42:25.318Z,73.70
2023-01-26T08:44:52.438Z,70.32
2023-01-26T08:47:19.195Z,74.55
2023-01-26T08:49:45.817Z,74.05
2023-01-26T08:52:12.537Z,74.20
2023-01-26T08:54:39.317Z,74.90
2023-01-26T08:57:06.485Z,74.10
2023-01-26T08:59:33.127Z,76.72
2023-01-26T09:01:59.909Z,75.47
2023-01-26T09:04:27.308Z,76.55
2023-01-26T09:06:54.108Z,71.57
2023-01-26T09:09:20.731Z,76.78
2023-01-26T09:11:47.400Z,74.35
2023-01-26T09:14:14.114Z,74.90
2023-01-26T09:16:41.065Z,76.97
2023-01-26T09:19:07.925Z,78.80
2023-01-26T09:21:34.640Z,78.32
2023-01-26T09:24:02.383Z,73.53
2023-01-26T09:26:30.507Z,74.93
2023-01-26T09:28:57.474Z,71.45
2023-01-26T09:31:24.387Z,75.57
2023-01-26T09:33:51.964Z,76.57
2023-01-26T09:36:18.986Z,71.70
2023-01-26T09:38:45.806Z,68.45
2023-01-26T09:41:43.212Z,67.38
2023-01-26T09:44:15.883Z,67.93
2023-01-26T09:46:51.289Z,69.35
2023-01-26T09:49:27.068Z,69.40
2023-01-26T09:52:18.552Z,71.18
2023-01-26T09:54:58.283Z,69.47
2023-01-26T09:57:47.759Z,73.20
2023-01-26T10:00:26.288Z,69.63
2023-01-26T10:03:19.170Z,73.70
2023-01-26T10:06:06.063Z,73.28
2023-01-26T10:09:00.407Z,72.40
2023-01-26T10:11:44.370Z,74.57
2023-01-26T10:14:18.531Z,78.70
2023-01-26T10:16:48.238Z,78.70
2023-01-26T10:19:28.669Z,75.05
2023-01-26T10:21:57.672Z,78.35
2023-01-26T10:24:24.485Z,74.03
2023-01-26T10:26:56.343Z,76.95
2023-01-26T10:29:23.333Z,75.28
2023-01-26T10:31:49.997Z,70.28
2023-01-26T10:34:25.170Z,72.18
2023-01-26T10:37:02.342Z,71.55
2023-01-26T10:39:29.000Z,71.38
2023-01-26T10:41:58.798Z,67.13
2023-01-26T10:44:35.967Z,69.75
2023-01-26T10:47:22.650Z,70.15
2023-01-26T10:49:49.591Z,67.00
2023-01-26T10:52:17.729Z,61.85
2023-01-26T10:54:46.000Z,68.18
2023-01-26T10:57:30.627Z,67.03
2023-01-26T11:00:00.267Z,66.45
2023-01-26T11:02:31.155Z,65.53
2023-01-26T11:05:21.390Z,64.78
2023-01-26T11:08:02.058Z,58.65
2023-01-26T11:10:38.092Z,65.65
2023-01-26T11:13:19.109Z,59.10
2023-01-26T11:15:52.925Z,61.22
2023-01-26T11:18:50.662Z,53.05
2023-01-26T11:21:48.194Z,56.85
2023-01-26T11:24:21.036Z,55.88
2023-01-26T11:27:12.155Z,55.25
2023-01-26T11:30:06.604Z,53.40
2023-01-26T11:32:58.279Z,55.13
2023-01-26T11:35:46.091Z,46.95
2023-01-26T11:38:41.925Z,46.17
2023-01-26T11:41:24.988Z,50.38
2023-01-26T11:44:13.674Z,53.17
2023-01-26T11:47:09.381Z,54.00
2023-01-26T11:49:39.375Z,54.28
2023-01-26T11:52:25.119Z,51.45
2023-01-26T11:55:11.308Z,51.58
2023-01-26T11:57:44.135Z,54.47
2023-01-26T12:00:29.555Z,58.03
2023-01-26T12:03:04.151Z,54.08
2023-01-26T12:05:47.727Z,55.92
2023-01-26T12:08:38.294Z,55.47
2023-01-26T12:11:22.967Z,57.53
2023-01-26T12:14:20.448Z,55.83
2023-01-26T12:17:17.554Z,54.30
2023-01-26T12:20:04.652Z,51.63
2023-01-26T12:22:37.098Z,46.35
2023-01-26T12:25:26.831Z,47.65
2023-01-26T12:27:56.549Z,48.92
2023-01-26T12:30:41.914Z,47.38
2023-01-26T12:33:10.955Z,52.35
2023-01-26T12:36:16.835Z,44.90
2023-01-26T12:38:58.441Z,39.75
2023-01-26T12:41:43.859Z,40.38
2023-01-26T12:44:22.561Z,42.22
2023-01-26T12:47:01.315Z,43.17
2023-01-26T12:49:34.862Z,41.15
2023-01-26T12:52:10.546Z,47.35
2023-01-26T12:54:42.802Z,46.13
2023-01-26T12:57:16.263Z,46.35
2023-01-26T12:59:48.165Z,43.60
2023-01-26T13:02:15.477Z,43.15
2023-01-26T13:04:46.191Z,42.60
2023-01-26T13:07:37.026Z,38.40
2023-01-26T13:10:17.550Z,38.88
2023-01-26T13:13:00.655Z,37.67
2023-01-26T13:15:30.297Z,34.45
2023-01-26T13:18:04.082Z,37.28
2023-01-26T13:20:39.880Z,38.30
2023-01-26T13:23:28.406Z,34.53
2023-01-26T13:26:16.742Z,35.40
2023-01-26T13:28:45.455Z,35.55
2023-01-26T13:31:13.267Z,32.55
2023-01-26T13:33:41.777Z,32.45
2023-01-26T13:36:16.959Z,29.05
2023-01-26T13:38:53.055Z,27.45
2023-01-26T13:41:21.008Z,28.08
2023-01-26T13:43:54.373Z,30.15
2023-01-26T13:46:49.546Z,28.92
2023-01-26T13:49:44.232Z,30.58
2023-01-26T13:52:25.494Z,29.33
2023-01-26T13:54:54.718Z,30.80
2023-01-26T13:57:29.833Z,29.25
2023-01-26T14:00:00.866Z,30.08
2023-01-26T14:02:33.857Z,33.30
2023-01-26T14:05:03.167Z,34.95
2023-01-26T14:07:40.938Z,31.98
2023-01-26T14:10:15.109Z,31.75
2023-01-26T14:12:44.191Z,35.38
2023-01-26T14:15:32.332Z,34.08
2023-01-26T14:18:02.178Z,31.45
2023-01-26T14:20:36.775Z,31.77
2023-01-26T14:23:13.743Z,31.83
2023-01-26T14:25:43.321Z,31.02
2023-01-26T14:28:16.289Z,32.35
2023-01-26T14:30:43.488Z,29.70
2023-01-26T14:33:14.016Z,32.78
2023-01-26T14:35:56.245Z,29.75
2023-01-26T14:38:22.971Z,28.58
2023-01-26T14:40:58.927Z,28.67
2023-01-26T14:43:27.137Z,31.60
2023-01-26T14:46:17.244Z,31.73
2023-01-26T14:48:56.237Z,30.27
2023-01-26T14:51:25.078Z,30.45
2023-01-26T14:53:55.544Z,33.15
2023-01-26T14:56:37.096Z,31.42
2023-01-26T14:59:06.157Z,33.20
2023-01-26T15:01:33.943Z,31.02
2023-01-26T15:04:17.785Z,31.35
2023-01-26T15:06:44.736Z,31.02
2023-01-26T15:09:22.523Z,27.70
2023-01-26T15:12:19.019Z,30.95
2023-01-26T15:14:45.606Z,30.70
2023-01-26T15:17:40.779Z,31.17
2023-01-26T15:20:22.798Z,32.20
2023-01-26T15:22:51.516Z,33.28
2023-01-26T15:25:25.972Z,31.33
2023-01-26T15:27:58.926Z,33.63
2023-01-26T15:30:30.280Z,32.78
2023-01-26T15:32:58.264Z,32.88
2023-01-26T15:35:57.574Z,32.53
2023-01-26T15:38:24.317Z,31.77
2023-01-26T15:40:50.929Z,32.53
2023-01-26T15:43:19.302Z,33.80
2023-01-26T15:45:52.096Z,34.05
2023-01-26T15:48:18.836Z,31.58
2023-01-26T15:50:47.960Z,33.67
2023-01-26T15:53:16.199Z,34.47
2023-01-26T15:55:44.122Z,33.03
2023-01-26T15:58:10.898Z,33.75
2023-01-26T16:00:38.622Z,34.20
2023-01-26T16:03:14.887Z,35.92
2023-01-26T16:05:42.135Z,32.10
2023-01-26T16:08:10.461Z,34.53
2023-01-26T16:10:40.360Z,33.05
2023-01-26T16:13:17.760Z,36.05
2023-01-26T16:15:47.619Z,38.90
2023-01-26T16:18:14.710Z,38.42
2023-01-26T16:20:44.246Z,37.78
2023-01-26T16:23:23.109Z,40.42
2023-01-26T16:25:50.577Z,42.88
2023-01-26T16:28:17.970Z,44.42
2023-01-26T16:30:46.143Z,46.35
2023-01-26T16:33:15.235Z,45.38
2023-01-26T16:35:42.185Z,45.70
2023-01-26T16:38:12.797Z,46.40
2023-01-26T16:40:41.205Z,52.40
2023-01-26T16:43:23.838Z,51.25
2023-01-26T16:45:51.602Z,56.80
2023-01-26T16:48:18.551Z,50.75
2023-01-26T16:50:45.737Z,47.53
2023-01-26T16:53:21.624Z,50.10
2023-01-26T16:55:48.326Z,49.28
2023-01-26T16:58:14.943Z,53.45
2023-01-26T17:00:41.798Z,55.53
2023-01-26T17:03:12.276Z,47.67
2023-01-26T17:05:40.539Z,70.97
2023-01-26T17:08:07.741Z,58.00
2023-01-26T17:10:34.608Z,50.10
2023-01-26T17:13:01.402Z,46.53
2023-01-26T17:15:29.145Z,49.55
2023-01-26T17:17:56.046Z,63.60
2023-01-26T17:20:23.118Z,58.33
2023-01-26T17:22:50.034Z,69.20
2023-01-26T17:25:18.122Z,63.25
2023-01-26T17:27:46.356Z,59.10
2023-01-26T17:30:13.486Z,55.80
2023-01-26T17:32:42.140Z,58.40
2023-01-26T17:35:09.325Z,54.50
2023-01-26T17:37:37.430Z,52.90
2023-01-26T17:40:04.679Z,65.80
2023-01-26T17:42:33.348Z,50.13
2023-01-26T17:45:00.545Z,51.63
2023-01-26T17:47:27.340Z,47.30
2023-01-26T17:49:54.011Z,43.50
2023-01-26T17:52:20.643Z,47.13
2023-01-26T17:54:47.254Z,44.70
2023-01-26T17:57:15.048Z,44.05
2023-01-26T17:59:41.743Z,45.28
2023-01-26T18:02:12.857Z,43.58
2023-01-26T18:04:40.008Z,42.83
2023-01-26T18:07:06.813Z,46.83
2023-01-26T18:09:33.399Z,39.25
2023-01-26T18:12:00.028Z,61.75
2023-01-26T18:14:26.706Z,39.03
2023-01-26T18:16:53.357Z,44.58
2023-01-26T18:19:20.085Z,39.13
2023-01-26T18:21:47.509Z,35.85
2023-01-26T18:24:14.960Z,38.53
2023-01-26T18:26:41.718Z,37.95
2023-01-26T18:29:08.801Z,37.17
2023-01-26T18:31:40.421Z,37.58
2023-01-26T18:34:07.463Z,37.47
2023-01-26T18:36:34.243Z,36.90
2023-01-26T18:39:04.788Z,37.40
2023-01-26T18:41:32.715Z,34.15
2023-01-26T18:44:00.422Z,43.38
2023-01-26T18:46:28.403Z,32.78
2023-01-26T18:49:00.482Z,33.65
2023-01-26T18:51:29.074Z,32.13
2023-01-26T18:53:55.794Z,36.00
2023-01-26T18:56:22.428Z,31.00
2023-01-26T18:58:53.100Z,29.30
2023-01-26T19:01:21.115Z,32.38
2023-01-26T19:03:53.816Z,30.67
2023-01-26T19:06:21.828Z,29.80
2023-01-26T19:08:58.671Z,32.63
2023-01-26T19:11:33.729Z,30.27
2023-01-26T19:16:28.848Z,29.55
2023-01-26T19:18:56.080Z,29.13
2023-01-26T19:21:24.692Z,27.65
2023-01-26T19:23:52.809Z,28.65
2023-01-26T19:26:21.738Z,28.50
2023-01-26T19:28:50.904Z,28.27
2023-01-26T19:31:19.495Z,28.35
2023-01-26T19:33:54.456Z,27.02
2023-01-26T19:38:51.243Z,26.73
2023-01-26T19:41:19.243Z,28.98
2023-01-26T19:43:46.061Z,26.60
2023-01-26T19:46:14.709Z,26.65
2023-01-26T19:48:41.679Z,31.63
2023-01-26T19:51:12.341Z,27.92
2023-01-26T19:53:42.368Z,25.17
2023-01-26T19:56:30.442Z,27.33
2023-01-26T19:58:59.152Z,31.30
2023-01-26T20:01:27.185Z,32.00
2023-01-26T20:03:57.246Z,34.30
2023-01-26T20:06:27.387Z,33.80
2023-01-26T20:08:55.056Z,36.83
2023-01-26T20:11:24.978Z,34.20
2023-01-26T20:13:59.681Z,32.83
2023-01-26T20:16:30.122Z,31.27
2023-01-26T20:18:58.604Z,31.20
2023-01-26T20:21:26.013Z,32.05
2023-01-26T20:23:55.498Z,33.60
2023-01-26T20:26:25.097Z,32.85
2023-01-26T20:28:52.442Z,43.47
2023-01-26T20:31:21.472Z,39.58
2023-01-26T20:33:49.389Z,44.85
2023-01-26T20:36:19.176Z,44.58
2023-01-26T20:38:48.135Z,45.47
2023-01-26T20:41:18.886Z,44.05
2023-01-26T20:43:58.731Z,35.17
2023-01-26T20:46:29.385Z,54.88
2023-01-26T20:48:56.814Z,46.13
2023-01-26T20:51:30.162Z,38.42
2023-01-26T20:53:57.628Z,37.70
2023-01-26T20:56:24.375Z,42.17
2023-01-26T20:58:55.637Z,41.13
2023-01-26T21:01:23.556Z,42.08
2023-01-26T21:03:50.204Z,42.03
2023-01-26T21:06:20.707Z,36.70
2023-01-26T21:08:48.556Z,41.35
2023-01-26T21:11:17.194Z,61.17
2023-01-26T21:13:45.183Z,46.10
2023-01-26T21:16:16.344Z,39.95
2023-01-26T21:18:43.820Z,46.75
2023-01-26T21:21:13.685Z,36.83
2023-01-26T21:23:40.788Z,35.35
2023-01-26T21:26:10.938Z,46.72
2023-01-26T21:28:37.569Z,41.97
2023-01-26T21:31:06.077Z,39.92
2023-01-26T21:33:34.176Z,39.97
2023-01-26T21:36:02.619Z,42.80
2023-01-26T21:38:40.743Z,45.42
2023-01-26T21:41:37.400Z,54.20
2023-01-26T21:44:10.223Z,42.60
2023-01-26T21:46:37.340Z,48.70
2023-01-26T21:49:04.714Z,53.85
2023-01-26T21:51:50.080Z,57.22
2023-01-26T21:54:16.947Z,42.97
2023-01-26T21:56:43.627Z,52.47
2023-01-26T21:59:14.452Z,44.15
2023-01-26T22:01:43.962Z,41.00
2023-01-26T22:04:14.486Z,46.80
2023-01-26T22:06:41.146Z,45.25
2023-01-26T22:09:09.806Z,39.13
2023-01-26T22:11:37.032Z,46.78
2023-01-26T22:14:03.695Z,41.20
2023-01-26T22:16:30.420Z,44.67
2023-01-26T22:18:57.079Z,44.67
2023-01-26T22:21:24.306Z,76.18
2023-01-26T22:23:50.930Z,49.75
2023-01-26T22:26:21.309Z,76.63
2023-01-26T22:28:56.444Z,47.40
2023-01-26T22:31:26.811Z,37.67
2023-01-26T22:33:54.964Z,36.03
2023-01-26T22:36:22.289Z,37.63
2023-01-26T22:38:49.727Z,33.95
2023-01-26T22:41:20.201Z,39.50
2023-01-26T22:43:48.423Z,39.90
2023-01-26T22:46:19.649Z,39.95
2023-01-26T22:48:46.499Z,38.00
2023-01-26T22:51:22.478Z,38.70
2023-01-26T22:53:50.526Z,38.10
2023-01-26T22:56:18.180Z,45.67
2023-01-26T22:58:57.520Z,33.72
2023-01-26T23:01:28.095Z,40.05
2023-01-26T23:03:55.674Z,40.58
2023-01-26T23:06:22.416Z,43.10
2023-01-26T23:08:49.497Z,41.47
2023-01-26T23:11:25.522Z,44.60
2023-01-26T23:13:53.767Z,45.38
2023-01-26T23:16:23.856Z,44.88
2023-01-26T23:18:52.006Z,44.65
2023-01-26T23:21:19.608Z,42.00
2023-01-26T23:23:46.489Z,45.03
2023-01-26T23:26:13.236Z,43.85
2023-01-26T23:28:42.001Z,58.75
2023-01-26T23:31:10.172Z,40.17
2023-01-26T23:33:37.884Z,41.90
2023-01-26T23:36:05.966Z,43.63
2023-01-26T23:38:32.806Z,40.92
2023-01-26T23:41:02.700Z,43.83
2023-01-26T23:43:29.385Z,56.58
2023-01-26T23:45:56.753Z,42.42
2023-01-26T23:48:24.951Z,36.38
2023-01-26T23:50:59.937Z,35.88
2023-01-26T23:55:53.866Z,32.80
2023-01-26T23:58:20.722Z,28.85
